createdAt,value
2018-06-03T00:00:06.454Z,100533
2018-06-03T00:02:34.679Z,100531
2018-06-03T00:05:04.776Z,100532
2018-06-03T00:07:32.998Z,100530
2018-06-03T00:10:02.650Z,100541
2018-06-03T00:12:30.936Z,100536
2018-06-03T00:15:01.523Z,100539
2018-06-03T00:17:29.753Z,100531
2018-06-03T00:19:58.083Z,100540
2018-06-03T00:22:32.351Z,100538
2018-06-03T00:25:01.236Z,100541
2018-06-03T00:27:29.443Z,100540
2018-06-03T00:29:57.660Z,100540
2018-06-03T00:32:26.699Z,100540
2018-06-03T00:34:54.878Z,100547
2018-06-03T00:37:23.196Z,100540
2018-06-03T00:39:52.569Z,100542
2018-06-03T00:42:20.805Z,100527
2018-06-03T00:44:49.006Z,100534
2018-06-03T00:47:18.273Z,100537
2018-06-03T00:49:46.867Z,100542
2018-06-03T00:52:15.069Z,100531
2018-06-03T00:54:43.866Z,100529
2018-06-03T00:57:12.222Z,100526
2018-06-03T00:59:40.417Z,100526
2018-06-03T01:02:09.270Z,100526
2018-06-03T01:04:37.463Z,100531
2018-06-03T01:07:05.830Z,100529
2018-06-03T01:09:34.126Z,100535
2018-06-03T01:12:02.323Z,100531
2018-06-03T01:14:30.538Z,100527
2018-06-03T01:16:58.828Z,100518
2018-06-03T01:19:27.086Z,100523
2018-06-03T01:21:56.023Z,100525
2018-06-03T01:24:24.333Z,100528
2018-06-03T01:26:52.628Z,100526
2018-06-03T01:29:20.817Z,100529
2018-06-03T01:31:49.037Z,100528
2018-06-03T01:34:17.258Z,100524
2018-06-03T01:36:45.472Z,100521
2018-06-03T01:39:14.097Z,100527
2018-06-03T01:41:43.074Z,100527
2018-06-03T01:44:11.923Z,100529
2018-06-03T01:46:40.142Z,100525
2018-06-03T01:49:08.361Z,100520
2018-06-03T01:51:37.323Z,100516
2018-06-03T01:54:05.560Z,100526
2018-06-03T01:56:33.864Z,100527
2018-06-03T01:59:02.264Z,100524
2018-06-03T02:01:31.414Z,100522
2018-06-03T02:03:59.754Z,100518
2018-06-03T02:06:28.021Z,100523
2018-06-03T02:08:56.252Z,100520
2018-06-03T02:11:24.491Z,100521
2018-06-03T02:13:53.618Z,100516
2018-06-03T02:16:21.877Z,100527
2018-06-03T02:18:50.081Z,100522
2018-06-03T02:21:18.345Z,100528
2018-06-03T02:23:46.819Z,100533
2018-06-03T02:26:15.005Z,100530
2018-06-03T02:28:43.579Z,100532
2018-06-03T02:31:11.857Z,100526
2018-06-03T02:33:40.130Z,100521
2018-06-03T02:36:08.386Z,100520
2018-06-03T02:38:36.786Z,100519
2018-06-03T02:41:05.030Z,100520
2018-06-03T02:43:33.237Z,100524
2018-06-03T02:46:01.475Z,100526
2018-06-03T02:48:30.571Z,100518
2018-06-03T02:50:59.811Z,100518
2018-06-03T02:53:28.047Z,100526
2018-06-03T02:55:56.291Z,100523
2018-06-03T02:58:25.352Z,100508
2018-06-03T03:00:53.588Z,100510
2018-06-03T03:03:21.819Z,100509
2018-06-03T03:05:50.450Z,100515
2018-06-03T03:08:19.423Z,100508
2018-06-03T03:10:48.195Z,100510
2018-06-03T03:13:16.498Z,100499
2018-06-03T03:15:46.113Z,100513
2018-06-03T03:18:15.070Z,100512
2018-06-03T03:20:43.269Z,100508
2018-06-03T03:23:11.491Z,100505
2018-06-03T03:25:39.730Z,100507
2018-06-03T03:28:07.946Z,100508
2018-06-03T03:30:36.184Z,100515
2018-06-03T03:33:06.318Z,100510
2018-06-03T03:35:34.598Z,100516
2018-06-03T03:38:02.844Z,100502
2018-06-03T03:40:31.072Z,100510
2018-06-03T03:42:59.294Z,100508
2018-06-03T03:45:27.576Z,100499
2018-06-03T03:47:55.792Z,100507
2018-06-03T03:50:24.043Z,100506
2018-06-03T03:52:53.173Z,100516
2018-06-03T03:55:21.464Z,100502
2018-06-03T03:57:49.727Z,100505
2018-06-03T04:00:18.854Z,100505
2018-06-03T04:02:48.135Z,100505
2018-06-03T04:05:16.400Z,100511
2018-06-03T04:07:44.682Z,100506
2018-06-03T04:10:12.907Z,100501
2018-06-03T04:12:41.952Z,100505
2018-06-03T04:15:10.173Z,100496
2018-06-03T04:18:14.685Z,100505.00
2018-06-03T04:20:46.673Z,100496.00
2018-06-03T04:23:16.856Z,100490.00
2018-06-03T04:25:47.019Z,100499.00
2018-06-03T04:28:17.501Z,100496.00
2018-06-03T04:30:47.795Z,100500.00
2018-06-03T04:33:19.365Z,100491.00
2018-06-03T04:35:49.442Z,100497.00
2018-06-03T04:38:19.896Z,100503.00
2018-06-03T04:40:50.136Z,100494.00
2018-06-03T04:43:20.778Z,100497.00
2018-06-03T04:45:51.666Z,100503.00
2018-06-03T04:48:21.838Z,100506.00
2018-06-03T04:50:52.123Z,100498.00
2018-06-03T04:53:22.450Z,100505.00
2018-06-03T04:55:53.118Z,100508.00
2018-06-03T04:58:23.189Z,100498.00
2018-06-03T05:00:53.942Z,100502.00
2018-06-03T05:03:24.510Z,100500.00
2018-06-03T05:05:55.940Z,100498.00
2018-06-03T05:08:26.337Z,100505.00
2018-06-03T05:10:56.663Z,100508.00
2018-06-03T05:13:26.847Z,100509.00
2018-06-03T05:15:57.314Z,100502.00
2018-06-03T05:18:27.780Z,100505.00
2018-06-03T05:21:00.062Z,100506.00
2018-06-03T05:23:30.280Z,100500.00
2018-06-03T05:26:00.887Z,100500.00
2018-06-03T05:28:32.014Z,100501.00
2018-06-03T05:31:02.904Z,100504.00
2018-06-03T05:33:33.744Z,100507.00
2018-06-03T05:36:05.162Z,100513.00
2018-06-03T05:38:35.440Z,100496.00
2018-06-03T05:41:05.598Z,100506.00
2018-06-03T05:43:35.890Z,100515.00
2018-06-03T05:46:06.225Z,100510.00
2018-06-03T05:48:36.863Z,100515.00
2018-06-03T05:51:06.870Z,100521.00
2018-06-03T05:53:37.443Z,100526.00
2018-06-03T05:56:07.664Z,100519.00
2018-06-03T05:58:37.902Z,100526.00
2018-06-03T06:01:07.996Z,100533.00
2018-06-03T06:03:38.705Z,100523.00
2018-06-03T06:06:10.026Z,100523.00
2018-06-03T06:08:40.415Z,100532.00
2018-06-03T06:11:10.680Z,100530.00
2018-06-03T06:13:41.003Z,100538.00
2018-06-03T06:16:11.197Z,100531.00
2018-06-03T06:18:41.842Z,100535.00
2018-06-03T06:21:11.998Z,100545.00
2018-06-03T06:23:42.658Z,100538.00
2018-06-03T06:26:12.880Z,100530.00
2018-06-03T06:28:44.024Z,100529.00
2018-06-03T06:31:16.823Z,100526.00
2018-06-03T06:33:47.183Z,100536.00
2018-06-03T06:36:18.585Z,100545.00
2018-06-03T06:38:48.878Z,100548.00
2018-06-03T06:41:19.248Z,100549.00
2018-06-03T06:43:49.801Z,100556.00
2018-06-03T06:46:20.007Z,100559.00
2018-06-03T06:48:50.966Z,100557.00
2018-06-03T06:51:21.731Z,100565.00
2018-06-03T06:53:52.209Z,100563.00
2018-06-03T06:56:23.306Z,100572.00
2018-06-03T06:58:54.127Z,100576.00
2018-06-03T07:01:24.120Z,100568.00
2018-06-03T07:03:54.477Z,100567.00
2018-06-03T07:06:24.656Z,100562.00
2018-06-03T07:08:55.572Z,100567.00
2018-06-03T07:11:27.164Z,100571.00
2018-06-03T07:13:57.323Z,100568.00
2018-06-03T07:16:28.108Z,100565.00
2018-06-03T07:18:59.464Z,100568.00
2018-06-03T07:21:29.556Z,100568.00
2018-06-03T07:24:00.287Z,100572.00
2018-06-03T07:26:30.337Z,100571.00
2018-06-03T07:29:00.676Z,100570.00
2018-06-03T07:31:32.259Z,100571.00
2018-06-03T07:34:03.206Z,100577.00
2018-06-03T07:36:34.032Z,100574.00
2018-06-03T07:39:06.925Z,100579.00
2018-06-03T07:41:37.521Z,100577.00
2018-06-03T07:44:08.694Z,100569.00
2018-06-03T07:46:39.837Z,100574.00
2018-06-03T07:49:10.299Z,100583.00
2018-06-03T07:51:41.243Z,100578.00
2018-06-03T07:54:11.677Z,100573.00
2018-06-03T07:56:44.691Z,100588.00
2018-06-03T07:59:15.021Z,100583.00
2018-06-03T08:01:45.439Z,100577.00
2018-06-03T08:04:16.133Z,100589.00
2018-06-03T08:06:47.920Z,100583.00
2018-06-03T08:09:19.728Z,100591.00
2018-06-03T08:11:50.224Z,100593.00
2018-06-03T08:14:20.065Z,100601.00
2018-06-03T08:16:50.744Z,100596.00
2018-06-03T08:19:29.475Z,100587.00
2018-06-03T08:22:00.834Z,100597.00
2018-06-03T08:24:32.739Z,100600.00
2018-06-03T08:27:04.567Z,100595.00
2018-06-03T08:29:36.618Z,100592.00
2018-06-03T08:32:07.742Z,100587.00
2018-06-03T08:34:38.245Z,100579.00
2018-06-03T08:37:08.579Z,100574.00
2018-06-03T08:39:39.110Z,100580.00
2018-06-03T08:42:11.967Z,100583.00
2018-06-03T08:44:44.725Z,100582.00
2018-06-03T08:47:15.427Z,100580.00
2018-06-03T08:49:46.896Z,100589.00
2018-06-03T08:52:17.367Z,100588.00
2018-06-03T08:54:48.188Z,100582.00
2018-06-03T08:57:19.244Z,100579.00
2018-06-03T08:59:51.295Z,100591.00
2018-06-03T09:02:23.446Z,100588.00
2018-06-03T09:04:54.838Z,100586.00
2018-06-03T09:07:25.380Z,100598.00
2018-06-03T09:09:57.819Z,100591.00
2018-06-03T09:12:28.859Z,100594.00
2018-06-03T09:14:59.418Z,100590.00
2018-06-03T09:17:30.059Z,100596.00
2018-06-03T09:20:00.525Z,100593.00
2018-06-03T09:22:30.572Z,100598.00
2018-06-03T09:25:01.062Z,100600.00
2018-06-03T09:27:32.064Z,100583.00
2018-06-03T09:30:03.625Z,100596.00
2018-06-03T09:32:34.919Z,100597.00
2018-06-03T09:35:05.139Z,100597.00
2018-06-03T09:37:36.407Z,100599.00
2018-06-03T09:40:06.655Z,100592.00
2018-06-03T09:42:37.579Z,100590.00
2018-06-03T09:45:11.809Z,100596.00
2018-06-03T09:47:43.948Z,100606.00
2018-06-03T09:50:14.511Z,100598.00
2018-06-03T09:52:45.269Z,100593.00
2018-06-03T09:55:16.248Z,100597.00
2018-06-03T09:57:46.633Z,100598.00
2018-06-03T10:00:17.523Z,100599.00
2018-06-03T10:02:47.607Z,100597.00
2018-06-03T10:05:19.335Z,100599.00
2018-06-03T10:07:49.488Z,100597.00
2018-06-03T10:10:19.952Z,100590.00
2018-06-03T10:12:50.660Z,100589.00
2018-06-03T10:15:21.037Z,100590.00
2018-06-03T10:17:51.530Z,100586.00
2018-06-03T10:20:21.890Z,100594.00
2018-06-03T10:22:52.363Z,100587.00
2018-06-03T10:25:23.324Z,100588.00
2018-06-03T10:27:54.094Z,100590.00
2018-06-03T10:30:26.330Z,100581.00
2018-06-03T10:32:57.173Z,100586.00
2018-06-03T10:35:28.449Z,100586.00
2018-06-03T10:38:01.234Z,100581.00
2018-06-03T10:40:32.250Z,100582.00
2018-06-03T10:43:02.222Z,100578.00
2018-06-03T10:45:32.527Z,100576.00
2018-06-03T10:48:02.808Z,100572.00
2018-06-03T10:50:34.590Z,100570.00
2018-06-03T10:53:05.635Z,100571.00
2018-06-03T10:55:36.187Z,100567.00
2018-06-03T10:58:07.682Z,100557.00
2018-06-03T11:00:38.489Z,100573.00
2018-06-03T11:03:09.330Z,100570.00
2018-06-03T11:05:39.665Z,100573.00
2018-06-03T11:08:10.876Z,100570.00
2018-06-03T11:10:41.669Z,100557.00
2018-06-03T11:13:12.609Z,100564.00
2018-06-03T11:15:43.232Z,100570.00
2018-06-03T11:18:13.384Z,100572.00
2018-06-03T11:20:43.675Z,100577.00
2018-06-03T11:23:13.860Z,100569.00
2018-06-03T11:25:44.054Z,100566.00
2018-06-03T11:28:15.533Z,100565.00
2018-06-03T11:30:47.533Z,100567.00
2018-06-03T11:33:18.358Z,100561.00
2018-06-03T11:35:48.866Z,100570.00
2018-06-03T11:38:19.950Z,100564.00
2018-06-03T11:40:50.541Z,100556.00
2018-06-03T11:43:20.939Z,100555.00
2018-06-03T11:45:51.456Z,100566.00
2018-06-03T11:48:21.809Z,100562.00
2018-06-03T11:50:53.878Z,100559.00
2018-06-03T11:53:25.486Z,100568.00
2018-06-03T11:55:58.214Z,100566.00
2018-06-03T11:58:56.624Z,100581.00
2018-06-03T12:01:28.154Z,100561.00
2018-06-03T12:03:59.113Z,100558.00
2018-06-03T12:06:30.890Z,100563.00
2018-06-03T12:09:02.661Z,100554.00
2018-06-03T12:11:35.371Z,100551.00
2018-06-03T12:14:05.968Z,100556.00
2018-06-03T12:16:37.774Z,100559.00
2018-06-03T12:19:09.060Z,100558.00
2018-06-03T12:21:41.087Z,100554.00
2018-06-03T12:24:14.993Z,100553.00
2018-06-03T12:26:48.391Z,100549.00
2018-06-03T12:29:21.458Z,100555.00
2018-06-03T12:31:52.522Z,100555.00
2018-06-03T12:34:25.670Z,100553.00
2018-06-03T12:36:56.724Z,100543.00
2018-06-03T12:39:27.573Z,100547.00
2018-06-03T12:41:58.999Z,100537.00
2018-06-03T12:44:30.989Z,100546.00
2018-06-03T12:47:02.898Z,100547.00
2018-06-03T12:49:33.807Z,100545.00
2018-06-03T12:52:05.282Z,100545.00
2018-06-03T12:54:36.946Z,100542.00
2018-06-03T12:57:08.062Z,100531.00
2018-06-03T12:59:39.009Z,100532.00
2018-06-03T13:02:11.423Z,100530.00
2018-06-03T13:04:41.653Z,100535.00
2018-06-03T13:07:11.846Z,100521.00
2018-06-03T13:09:45.149Z,100526.00
2018-06-03T13:12:16.680Z,100524.00
2018-06-03T13:14:48.729Z,100522.00
2018-06-03T13:17:19.368Z,100522.00
2018-06-03T13:19:49.640Z,100514.00
2018-06-03T13:22:19.751Z,100514.00
2018-06-03T13:24:50.027Z,100505.00
2018-06-03T13:27:22.269Z,100515.00
2018-06-03T13:29:54.373Z,100507.00
2018-06-03T13:32:26.103Z,100507.00
2018-06-03T13:34:58.318Z,100504.00
2018-06-03T13:37:31.616Z,100504.00
2018-06-03T13:40:02.989Z,100504.00
2018-06-03T13:42:35.327Z,100507.00
2018-06-03T13:45:07.013Z,100501.00
2018-06-03T13:47:39.387Z,100505.00
2018-06-03T13:50:10.019Z,100505.00
2018-06-03T13:52:40.930Z,100505.00
2018-06-03T13:55:13.509Z,100504.00
2018-06-03T13:57:43.683Z,100503.00
2018-06-03T14:00:14.238Z,100501.00
2018-06-03T14:02:44.875Z,100498.00
2018-06-03T14:05:15.683Z,100519.00
2018-06-03T14:07:45.804Z,100482.00
2018-06-03T14:10:19.147Z,100482.00
2018-06-03T14:12:51.057Z,100489.00
2018-06-03T14:15:23.171Z,100486.00
2018-06-03T14:17:54.810Z,100513.00
2018-06-03T14:20:25.587Z,100489.00
2018-06-03T14:22:55.905Z,100495.00
2018-06-03T14:25:26.348Z,100502.00
2018-06-03T14:27:56.914Z,100479.00
2018-06-03T14:30:27.445Z,100487.00
2018-06-03T14:32:58.676Z,100491.00
2018-06-03T14:35:32.058Z,100491.00
2018-06-03T14:38:02.774Z,100493.00
2018-06-03T14:40:33.684Z,100487.00
2018-06-03T14:43:04.209Z,100488.00
2018-06-03T14:45:34.692Z,100481.00
2018-06-03T14:48:05.247Z,100472.00
2018-06-03T14:50:37.950Z,100451.00
2018-06-03T14:53:08.367Z,100454.00
2018-06-03T14:55:38.453Z,100449.00
2018-06-03T14:58:08.959Z,100455.00
2018-06-03T15:00:38.925Z,100450.00
2018-06-03T15:03:09.061Z,100458.00
2018-06-03T15:05:39.501Z,100459.00
2018-06-03T15:08:09.585Z,100450.00
2018-06-03T15:10:39.717Z,100461.00
2018-06-03T15:13:09.932Z,100447.00
2018-06-03T15:15:40.414Z,100453.00
2018-06-03T15:18:11.741Z,100454.00
2018-06-03T15:20:42.460Z,100447.00
2018-06-03T15:23:12.703Z,100444.00
2018-06-03T15:25:43.981Z,100448.00
2018-06-03T15:28:14.215Z,100448.00
2018-06-03T15:30:44.695Z,100432.00
2018-06-03T15:33:15.375Z,100436.00
2018-06-03T15:35:45.501Z,100450.00
2018-06-03T15:38:15.793Z,100440.00
2018-06-03T15:40:45.767Z,100425.00
2018-06-03T15:43:16.959Z,100418.00
2018-06-03T15:45:47.411Z,100417.00
2018-06-03T15:48:17.505Z,100421.00
2018-06-03T15:50:48.717Z,100417.00
2018-06-03T15:53:20.004Z,100411.00
2018-06-03T15:55:50.435Z,100413.00
2018-06-03T15:58:21.596Z,100405.00
2018-06-03T16:00:53.873Z,100407.00
2018-06-03T16:03:25.804Z,100403.00
2018-06-03T16:05:56.170Z,100412.00
2018-06-03T16:08:27.111Z,100403.00
2018-06-03T16:10:58.003Z,100405.00
2018-06-03T16:13:29.430Z,100400.00
2018-06-03T16:16:00.963Z,100403.00
2018-06-03T16:18:31.417Z,100396.00
2018-06-03T16:21:01.698Z,100400.00
2018-06-03T16:23:32.586Z,100398.00
2018-06-03T16:26:03.321Z,100397.00
2018-06-03T16:28:34.672Z,100398.00
2018-06-03T16:31:05.395Z,100397.00
2018-06-03T16:33:35.814Z,100403.00
2018-06-03T16:36:06.520Z,100411.00
2018-06-03T16:38:37.281Z,100408.00
2018-06-03T16:41:07.431Z,100390.00
2018-06-03T16:43:39.260Z,100410.00
2018-06-03T16:46:09.566Z,100402.00
2018-06-03T16:48:40.504Z,100391.00
2018-06-03T16:51:11.362Z,100391.00
2018-06-03T16:53:41.289Z,100400.00
2018-06-03T16:56:11.603Z,100403.00
2018-06-03T16:58:42.728Z,100394.00
2018-06-03T17:01:12.977Z,100403.00
2018-06-03T17:03:43.847Z,100393.00
2018-06-03T17:06:14.888Z,100386.00
2018-06-03T17:08:45.310Z,100381.00
2018-06-03T17:11:17.803Z,100389.00
2018-06-03T17:13:49.047Z,100387.00
2018-06-03T17:16:21.460Z,100395.00
2018-06-03T17:18:52.887Z,100388.00
2018-06-03T17:21:23.365Z,100382.00
2018-06-03T17:23:53.771Z,100382.00
2018-06-03T17:26:26.533Z,100383.00
2018-06-03T17:28:58.286Z,100381.00
2018-06-03T17:31:28.669Z,100393.00
2018-06-03T17:33:59.416Z,100383.00
2018-06-03T17:36:29.538Z,100380.00
2018-06-03T17:39:00.358Z,100391.00
2018-06-03T17:41:30.764Z,100393.00
2018-06-03T17:44:01.469Z,100393.00
2018-06-03T17:46:31.664Z,100390.00
2018-06-03T17:49:02.662Z,100390.00
2018-06-03T17:51:33.311Z,100393.00
2018-06-03T17:54:03.887Z,100390.00
2018-06-03T17:56:35.653Z,100386.00
2018-06-03T17:59:06.343Z,100391.00
2018-06-03T18:01:36.803Z,100396.00
2018-06-03T18:04:07.229Z,100396.00
2018-06-03T18:06:38.314Z,100389.00
2018-06-03T18:09:10.250Z,100390.00
2018-06-03T18:11:43.844Z,100386.00
2018-06-03T18:14:14.017Z,100398.00
2018-06-03T18:16:44.147Z,100383.00
2018-06-03T18:19:15.241Z,100391.00
2018-06-03T18:21:47.341Z,100388.00
2018-06-03T18:24:18.412Z,100396.00
2018-06-03T18:29:51.367Z,100394.00
2018-06-03T18:32:22.570Z,100387.00
2018-06-03T18:34:53.533Z,100386.00
2018-06-03T18:37:24.246Z,100387.00
2018-06-03T18:39:54.870Z,100388.00
2018-06-03T18:42:25.126Z,100393.00
2018-06-03T18:44:55.853Z,100391.00
2018-06-03T18:47:26.261Z,100386.00
2018-06-03T18:49:56.482Z,100389.00
2018-06-03T18:52:26.595Z,100387.00
2018-06-03T18:54:57.078Z,100381.00
2018-06-03T18:57:28.338Z,100389.00
2018-06-03T18:59:58.516Z,100391.00
2018-06-03T19:02:29.078Z,100400.00
2018-06-03T19:04:59.291Z,100403.00
2018-06-03T19:07:30.868Z,100394.00
2018-06-03T19:10:01.439Z,100394.00
2018-06-03T19:12:32.514Z,100383.00
2018-06-03T19:15:02.749Z,100396.00
2018-06-03T19:17:33.351Z,100388.00
2018-06-03T19:20:04.404Z,100393.00
2018-06-03T19:22:34.741Z,100392.00
2018-06-03T19:25:04.934Z,100397.00
2018-06-03T19:27:35.569Z,100395.00
2018-06-03T19:30:06.539Z,100395.00
2018-06-03T19:32:38.354Z,100389.00
2018-06-03T19:35:09.937Z,100392.00
2018-06-03T19:37:40.213Z,100386.00
2018-06-03T19:40:12.559Z,100397.00
2018-06-03T19:42:43.698Z,100386.00
2018-06-03T19:45:13.898Z,100379.00
2018-06-03T19:47:44.032Z,100378.00
2018-06-03T19:50:14.593Z,100387.00
2018-06-03T19:52:45.756Z,100383.00
2018-06-03T19:55:16.325Z,100388.00
2018-06-03T19:57:46.837Z,100381.00
2018-06-03T20:00:17.777Z,100385.00
2018-06-03T20:02:49.103Z,100377.00
2018-06-03T20:05:20.283Z,100388.00
2018-06-03T20:07:50.531Z,100389.00
2018-06-03T20:10:20.882Z,100391.00
2018-06-03T20:12:52.322Z,100395.00
2018-06-03T20:15:23.128Z,100390.00
2018-06-03T20:17:55.836Z,100391.00
2018-06-03T20:20:26.542Z,100391.00
2018-06-03T20:22:57.726Z,100395.00
2018-06-03T20:25:28.047Z,100387.00
2018-06-03T20:27:59.193Z,100390.00
2018-06-03T20:30:30.443Z,100400.00
2018-06-03T20:33:02.071Z,100401.00
2018-06-03T20:35:33.270Z,100408.00
2018-06-03T20:38:03.740Z,100403.00
2018-06-03T20:40:33.964Z,100410.00
2018-06-03T20:43:04.066Z,100407.00
2018-06-03T20:45:34.517Z,100419.00
2018-06-03T20:48:05.322Z,100418.00
2018-06-03T20:50:35.882Z,100420.00
2018-06-03T20:53:06.249Z,100425.00
2018-06-03T20:55:36.801Z,100425.00
2018-06-03T20:58:07.088Z,100423.00
2018-06-03T21:00:37.636Z,100423.00
2018-06-03T21:03:09.722Z,100417.00
2018-06-03T21:05:40.026Z,100421.00
2018-06-03T21:08:10.152Z,100434.00
2018-06-03T21:10:40.259Z,100427.00
2018-06-03T21:13:10.547Z,100438.00
2018-06-03T21:15:41.915Z,100436.00
2018-06-03T21:18:13.597Z,100431.00
2018-06-03T21:20:43.828Z,100428.00
2018-06-03T21:23:15.139Z,100431.00
2018-06-03T21:25:45.647Z,100436.00
2018-06-03T21:28:15.743Z,100436.00
2018-06-03T21:30:46.552Z,100436.00
2018-06-03T21:33:16.857Z,100444.00
2018-06-03T21:35:47.169Z,100452.00
2018-06-03T21:38:17.932Z,100445.00
2018-06-03T21:40:49.212Z,100451.00
2018-06-03T21:43:19.373Z,100450.00
2018-06-03T21:45:49.756Z,100445.00
2018-06-03T21:48:20.511Z,100443.00
2018-06-03T21:50:50.862Z,100438.00
2018-06-03T21:53:21.315Z,100444.00
2018-06-03T21:55:52.538Z,100450.00
2018-06-03T21:58:22.864Z,100445.00
2018-06-03T22:00:53.117Z,100451.00
2018-06-03T22:03:24.689Z,100448.00
2018-06-03T22:05:55.756Z,100443.00
2018-06-03T22:08:26.158Z,100447.00
2018-06-03T22:10:56.171Z,100448.00
2018-06-03T22:13:27.676Z,100445.00
2018-06-03T22:15:59.031Z,100441.00
2018-06-03T22:18:30.065Z,100433.00
2018-06-03T22:21:00.385Z,100438.00
2018-06-03T22:23:31.773Z,100442.00
2018-06-03T22:26:01.822Z,100436.00
2018-06-03T22:28:33.274Z,100439.00
2018-06-03T22:31:04.842Z,100437.00
2018-06-03T22:33:35.576Z,100432.00
2018-06-03T22:36:06.743Z,100438.00
2018-06-03T22:38:38.752Z,100447.00
2018-06-03T22:41:09.895Z,100449.00
2018-06-03T22:43:40.260Z,100446.00
2018-06-03T22:46:11.043Z,100438.00
2018-06-03T22:48:42.471Z,100445.00
2018-06-03T22:51:15.037Z,100442.00
2018-06-03T22:53:45.441Z,100443.00
2018-06-03T22:56:16.434Z,100446.00
2018-06-03T22:58:47.600Z,100449.00
2018-06-03T23:01:20.688Z,100446.00
2018-06-03T23:03:52.056Z,100453.00
2018-06-03T23:06:22.517Z,100453.00
2018-06-03T23:08:53.182Z,100453.00
2018-06-03T23:11:24.341Z,100448.00
2018-06-03T23:13:55.539Z,100455.00
2018-06-03T23:16:26.161Z,100454.00
2018-06-03T23:18:56.772Z,100457.00
2018-06-03T23:21:26.992Z,100447.00
2018-06-03T23:23:57.479Z,100454.00
2018-06-03T23:26:27.827Z,100451.00
2018-06-03T23:28:58.721Z,100444.00
2018-06-03T23:31:29.233Z,100443.00
2018-06-03T23:33:59.445Z,100453.00
2018-06-03T23:36:29.896Z,100435.00
2018-06-03T23:39:00.991Z,100439.00
2018-06-03T23:41:31.159Z,100439.00
2018-06-03T23:44:01.966Z,100430.00
2018-06-03T23:46:33.085Z,100448.00
2018-06-03T23:49:03.229Z,100446.00
2018-06-03T23:51:33.732Z,100440.00
2018-06-03T23:54:04.533Z,100440.00
2018-06-03T23:56:34.871Z,100440.00
2018-06-03T23:59:05.092Z,100440.00
